sensor_id;sensor_type;location;lat;lon;timestamp;pressure;altitude;pressure_sealevel;temperature;humidity
41306;BME280;27051;50.376;19.152;2023-08-06T00:01:35;96897.05;;;20.11;80.06
41306;BME280;27051;50.376;19.152;2023-08-06T00:04:02;96891.63;;;20.07;80.04
41306;BME280;27051;50.376;19.152;2023-08-06T00:06:28;96906.92;;;20.06;80.12
41306;BME280;27051;50.376;19.152;2023-08-06T00:09:03;96900.31;;;20.11;80.14
41306;BME280;27051;50.376;19.152;2023-08-06T00:12:12;96884.55;;;20.18;80.31
41306;BME280;27051;50.376;19.152;2023-08-06T00:14:57;96857.95;;;20.19;80.29
41306;BME280;27051;50.376;19.152;2023-08-06T00:17:40;96848.95;;;20.14;80.41
41306;BME280;27051;50.376;19.152;2023-08-06T00:20:39;96852.56;;;20.13;80.30
41306;BME280;27051;50.376;19.152;2023-08-06T00:23:19;96840.39;;;20.14;80.36
41306;BME280;27051;50.376;19.152;2023-08-06T00:28:28;96798.98;;;20.15;80.36
41306;BME280;27051;50.376;19.152;2023-08-06T00:31:15;96803.83;;;20.20;80.29
41306;BME280;27051;50.376;19.152;2023-08-06T00:33:49;96774.47;;;20.16;80.11
41306;BME280;27051;50.376;19.152;2023-08-06T00:36:29;96749.04;;;20.12;80.40
41306;BME280;27051;50.376;19.152;2023-08-06T00:39:06;96720.23;;;20.05;80.51
41306;BME280;27051;50.376;19.152;2023-08-06T00:41:32;96697.94;;;20.03;80.59
41306;BME280;27051;50.376;19.152;2023-08-06T00:43:59;96692.63;;;20.01;80.53
41306;BME280;27051;50.376;19.152;2023-08-06T00:46:38;96684.94;;;19.98;80.56
41306;BME280;27051;50.376;19.152;2023-08-06T00:49:04;96700.75;;;19.98;80.69
41306;BME280;27051;50.376;19.152;2023-08-06T00:51:32;96711.92;;;19.97;80.59
41306;BME280;27051;50.376;19.152;2023-08-06T00:54:01;96696.83;;;19.96;80.75
41306;BME280;27051;50.376;19.152;2023-08-06T00:56:28;96664.56;;;19.94;80.78
41306;BME280;27051;50.376;19.152;2023-08-06T00:58:55;96716.30;;;19.93;80.78
41306;BME280;27051;50.376;19.152;2023-08-06T01:01:32;96789.55;;;19.88;80.69
41306;BME280;27051;50.376;19.152;2023-08-06T01:04:08;96730.00;;;19.86;81.00
41306;BME280;27051;50.376;19.152;2023-08-06T01:13:20;96667.64;;;20.00;81.06
41306;BME280;27051;50.376;19.152;2023-08-06T01:15:29;96719.04;;;19.95;81.21
41306;BME280;27051;50.376;19.152;2023-08-06T01:18:19;96718.18;;;19.93;81.19
41306;BME280;27051;50.376;19.152;2023-08-06T01:20:56;96694.58;;;19.96;81.26
41306;BME280;27051;50.376;19.152;2023-08-06T01:23:45;96688.03;;;19.93;81.03
41306;BME280;27051;50.376;19.152;2023-08-06T01:26:31;96692.15;;;19.93;81.26
41306;BME280;27051;50.376;19.152;2023-08-06T01:29:10;96690.24;;;19.95;81.36
41306;BME280;27051;50.376;19.152;2023-08-06T01:31:39;96660.34;;;19.97;81.30
41306;BME280;27051;50.376;19.152;2023-08-06T01:34:13;96636.76;;;19.97;81.33
41306;BME280;27051;50.376;19.152;2023-08-06T01:36:55;96639.16;;;19.99;81.34
41306;BME280;27051;50.376;19.152;2023-08-06T01:39:22;96625.41;;;20.03;81.19
41306;BME280;27051;50.376;19.152;2023-08-06T01:41:56;96607.09;;;20.03;81.02
41306;BME280;27051;50.376;19.152;2023-08-06T01:44:32;96595.91;;;20.00;81.00
41306;BME280;27051;50.376;19.152;2023-08-06T01:47:40;96576.24;;;19.91;81.28
41306;BME280;27051;50.376;19.152;2023-08-06T01:50:09;96592.66;;;19.93;81.43
41306;BME280;27051;50.376;19.152;2023-08-06T01:52:35;96620.05;;;19.95;81.29
41306;BME280;27051;50.376;19.152;2023-08-06T01:55:08;96629.86;;;19.95;81.41
41306;BME280;27051;50.376;19.152;2023-08-06T01:57:34;96629.67;;;19.93;81.24
41306;BME280;27051;50.376;19.152;2023-08-06T02:00:09;96642.41;;;19.90;81.31
41306;BME280;27051;50.376;19.152;2023-08-06T02:02:56;96652.11;;;19.91;81.33
41306;BME280;27051;50.376;19.152;2023-08-06T02:05:24;96662.21;;;19.95;81.52
41306;BME280;27051;50.376;19.152;2023-08-06T02:07:54;96661.97;;;19.95;81.28
41306;BME280;27051;50.376;19.152;2023-08-06T02:10:20;96664.89;;;20.01;81.35
41306;BME280;27051;50.376;19.152;2023-08-06T02:12:47;96655.06;;;20.04;81.34
41306;BME280;27051;50.376;19.152;2023-08-06T02:15:14;96648.66;;;20.07;81.49
41306;BME280;27051;50.376;19.152;2023-08-06T02:18:01;96641.39;;;20.03;81.51
41306;BME280;27051;50.376;19.152;2023-08-06T02:20:27;96640.44;;;20.04;81.49
41306;BME280;27051;50.376;19.152;2023-08-06T02:22:54;96630.14;;;20.04;81.45
41306;BME280;27051;50.376;19.152;2023-08-06T02:25:20;96627.52;;;20.05;81.42
41306;BME280;27051;50.376;19.152;2023-08-06T02:27:47;96631.69;;;20.07;81.32
41306;BME280;27051;50.376;19.152;2023-08-06T02:30:38;96631.48;;;20.08;81.35
41306;BME280;27051;50.376;19.152;2023-08-06T02:33:03;96624.31;;;20.08;81.31
41306;BME280;27051;50.376;19.152;2023-08-06T02:35:58;96624.81;;;20.12;81.23
41306;BME280;27051;50.376;19.152;2023-08-06T02:38:19;96627.05;;;20.10;81.14
41306;BME280;27051;50.376;19.152;2023-08-06T02:40:46;96628.70;;;20.10;81.28
41306;BME280;27051;50.376;19.152;2023-08-06T02:43:42;96625.84;;;20.04;81.31
41306;BME280;27051;50.376;19.152;2023-08-06T02:46:29;96623.92;;;20.03;81.27
41306;BME280;27051;50.376;19.152;2023-08-06T02:49:17;96618.25;;;20.03;81.25
41306;BME280;27051;50.376;19.152;2023-08-06T02:51:47;96613.25;;;20.01;81.15
41306;BME280;27051;50.376;19.152;2023-08-06T02:54:18;96611.05;;;20.01;81.23
41306;BME280;27051;50.376;19.152;2023-08-06T02:59:25;96610.50;;;20.04;81.05
41306;BME280;27051;50.376;19.152;2023-08-06T03:02:01;96608.60;;;20.05;81.11
41306;BME280;27051;50.376;19.152;2023-08-06T03:04:50;96598.61;;;19.98;81.17
41306;BME280;27051;50.376;19.152;2023-08-06T03:07:25;96590.05;;;19.93;81.05
41306;BME280;27051;50.376;19.152;2023-08-06T03:10:33;96583.58;;;19.93;81.19
41306;BME280;27051;50.376;19.152;2023-08-06T03:13:09;96586.99;;;19.93;81.08
41306;BME280;27051;50.376;19.152;2023-08-06T03:15:35;96592.64;;;19.94;81.14
41306;BME280;27051;50.376;19.152;2023-08-06T03:18:11;96594.04;;;20.00;80.91
41306;BME280;27051;50.376;19.152;2023-08-06T03:20:40;96598.14;;;20.01;80.96
41306;BME280;27051;50.376;19.152;2023-08-06T03:23:17;96597.52;;;20.03;80.96
41306;BME280;27051;50.376;19.152;2023-08-06T03:25:54;96587.80;;;19.98;81.18
41306;BME280;27051;50.376;19.152;2023-08-06T03:28:50;96583.40;;;19.96;81.09
41306;BME280;27051;50.376;19.152;2023-08-06T03:31:41;96576.61;;;19.94;81.15
41306;BME280;27051;50.376;19.152;2023-08-06T03:34:06;96576.44;;;19.93;81.26
41306;BME280;27051;50.376;19.152;2023-08-06T03:36:35;96573.61;;;19.93;81.37
41306;BME280;27051;50.376;19.152;2023-08-06T03:39:22;96575.52;;;19.94;81.36
41306;BME280;27051;50.376;19.152;2023-08-06T03:41:52;96574.88;;;20.02;81.42
41306;BME280;27051;50.376;19.152;2023-08-06T03:44:28;96571.95;;;20.06;81.27
41306;BME280;27051;50.376;19.152;2023-08-06T03:47:36;96569.69;;;20.09;81.42
41306;BME280;27051;50.376;19.152;2023-08-06T03:50:02;96559.35;;;20.03;81.43
41306;BME280;27051;50.376;19.152;2023-08-06T03:52:29;96551.58;;;20.05;81.43
41306;BME280;27051;50.376;19.152;2023-08-06T03:54:55;96542.45;;;20.07;81.32
41306;BME280;27051;50.376;19.152;2023-08-06T03:57:22;96541.80;;;20.08;81.38
41306;BME280;27051;50.376;19.152;2023-08-06T03:59:53;96536.84;;;20.10;81.46
41306;BME280;27051;50.376;19.152;2023-08-06T04:02:20;96534.19;;;20.14;81.54
41306;BME280;27051;50.376;19.152;2023-08-06T04:05:10;96532.31;;;20.25;81.65
41306;BME280;27051;50.376;19.152;2023-08-06T04:07:56;96532.69;;;20.32;81.28
41306;BME280;27051;50.376;19.152;2023-08-06T04:10:25;96531.52;;;20.29;81.28
41306;BME280;27051;50.376;19.152;2023-08-06T04:13:13;96532.81;;;20.26;81.36
41306;BME280;27051;50.376;19.152;2023-08-06T04:15:40;96537.23;;;20.26;81.49
41306;BME280;27051;50.376;19.152;2023-08-06T04:18:29;96535.39;;;20.26;81.34
41306;BME280;27051;50.376;19.152;2023-08-06T04:20:54;96528.39;;;20.23;81.44
41306;BME280;27051;50.376;19.152;2023-08-06T04:23:23;96525.16;;;20.21;81.55
41306;BME280;27051;50.376;19.152;2023-08-06T04:28:56;96538.41;;;20.28;81.50
41306;BME280;27051;50.376;19.152;2023-08-06T04:31:23;96534.50;;;20.24;81.57
41306;BME280;27051;50.376;19.152;2023-08-06T04:33:53;96524.65;;;20.15;81.56
41306;BME280;27051;50.376;19.152;2023-08-06T04:36:21;96525.45;;;20.13;81.77
41306;BME280;27051;50.376;19.152;2023-08-06T04:39:08;96526.82;;;20.14;81.82
41306;BME280;27051;50.376;19.152;2023-08-06T04:41:48;96527.09;;;20.13;81.76
41306;BME280;27051;50.376;19.152;2023-08-06T04:44:57;96521.84;;;20.16;81.98
41306;BME280;27051;50.376;19.152;2023-08-06T04:47:33;96517.44;;;20.22;82.11
41306;BME280;27051;50.376;19.152;2023-08-06T04:50:31;96516.52;;;20.24;81.86
41306;BME280;27051;50.376;19.152;2023-08-06T04:53:03;96512.83;;;20.33;81.92
41306;BME280;27051;50.376;19.152;2023-08-06T04:56:11;96510.98;;;20.37;81.73
41306;BME280;27051;50.376;19.152;2023-08-06T04:58:47;96506.63;;;20.30;81.93
41306;BME280;27051;50.376;19.152;2023-08-06T05:01:19;96504.33;;;20.31;81.93
41306;BME280;27051;50.376;19.152;2023-08-06T05:06:26;96504.70;;;20.32;81.85
41306;BME280;27051;50.376;19.152;2023-08-06T05:09:14;96493.82;;;20.31;81.93
41306;BME280;27051;50.376;19.152;2023-08-06T05:12:03;96493.34;;;20.36;81.71
41306;BME280;27051;50.376;19.152;2023-08-06T05:15:12;96481.59;;;20.37;81.80
41306;BME280;27051;50.376;19.152;2023-08-06T05:17:59;96476.10;;;20.34;82.12
41306;BME280;27051;50.376;19.152;2023-08-06T05:21:05;96475.91;;;20.37;82.07
41306;BME280;27051;50.376;19.152;2023-08-06T05:23:55;96473.77;;;20.40;82.02
41306;BME280;27051;50.376;19.152;2023-08-06T05:26:43;96463.59;;;20.37;81.79
41306;BME280;27051;50.376;19.152;2023-08-06T05:32:34;96452.07;;;20.48;81.95
41306;BME280;27051;50.376;19.152;2023-08-06T05:38:01;96438.94;;;20.42;81.86
41306;BME280;27051;50.376;19.152;2023-08-06T05:40:55;96433.81;;;20.42;82.01
41306;BME280;27051;50.376;19.152;2023-08-06T05:43:26;96433.34;;;20.44;82.06
41306;BME280;27051;50.376;19.152;2023-08-06T05:46:14;96434.69;;;20.46;82.09
41306;BME280;27051;50.376;19.152;2023-08-06T05:49:04;96429.30;;;20.48;81.98
41306;BME280;27051;50.376;19.152;2023-08-06T05:51:55;96429.02;;;20.44;81.96
41306;BME280;27051;50.376;19.152;2023-08-06T05:57:50;96432.98;;;20.54;82.05
41306;BME280;27051;50.376;19.152;2023-08-06T06:00:35;96422.05;;;20.52;81.93
41306;BME280;27051;50.376;19.152;2023-08-06T06:03:33;96412.63;;;20.43;82.13
41306;BME280;27051;50.376;19.152;2023-08-06T06:06:23;96405.67;;;20.46;82.23
41306;BME280;27051;50.376;19.152;2023-08-06T06:09:18;96395.20;;;20.49;82.26
41306;BME280;27051;50.376;19.152;2023-08-06T06:11:46;96389.73;;;20.47;82.10
41306;BME280;27051;50.376;19.152;2023-08-06T06:14:22;96379.66;;;20.43;81.97
41306;BME280;27051;50.376;19.152;2023-08-06T06:17:09;96368.33;;;20.39;81.95
41306;BME280;27051;50.376;19.152;2023-08-06T06:19:56;96364.11;;;20.42;82.60
41306;BME280;27051;50.376;19.152;2023-08-06T06:23:03;96365.62;;;20.51;82.23
41306;BME280;27051;50.376;19.152;2023-08-06T06:28:20;96350.73;;;20.50;82.20
41306;BME280;27051;50.376;19.152;2023-08-06T06:33:54;96348.76;;;20.38;82.03
41306;BME280;27051;50.376;19.152;2023-08-06T06:36:41;96351.81;;;20.33;82.19
41306;BME280;27051;50.376;19.152;2023-08-06T06:39:32;96354.69;;;20.31;82.40
41306;BME280;27051;50.376;19.152;2023-08-06T06:44:54;96348.79;;;20.28;81.57
41306;BME280;27051;50.376;19.152;2023-08-06T06:47:30;96337.45;;;20.12;81.24
41306;BME280;27051;50.376;19.152;2023-08-06T06:49:56;96333.63;;;19.96;81.10
41306;BME280;27051;50.376;19.152;2023-08-06T06:55:20;96347.05;;;19.52;80.77
41306;BME280;27051;50.376;19.152;2023-08-06T07:00:23;96384.61;;;19.24;83.45
41306;BME280;27051;50.376;19.152;2023-08-06T07:02:50;96350.89;;;18.98;87.88
41306;BME280;27051;50.376;19.152;2023-08-06T07:05:19;96328.94;;;18.75;88.85
41306;BME280;27051;50.376;19.152;2023-08-06T07:07:46;96335.67;;;18.66;89.22
41306;BME280;27051;50.376;19.152;2023-08-06T07:10:12;96333.57;;;18.50;88.70
41306;BME280;27051;50.376;19.152;2023-08-06T07:12:46;96329.92;;;18.42;88.78
41306;BME280;27051;50.376;19.152;2023-08-06T07:15:13;96329.03;;;18.35;88.61
41306;BME280;27051;50.376;19.152;2023-08-06T07:17:39;96328.80;;;18.24;87.88
41306;BME280;27051;50.376;19.152;2023-08-06T07:20:06;96324.98;;;18.08;87.67
41306;BME280;27051;50.376;19.152;2023-08-06T07:22:33;96322.35;;;17.94;87.70
41306;BME280;27051;50.376;19.152;2023-08-06T07:25:00;96303.48;;;17.88;88.27
41306;BME280;27051;50.376;19.152;2023-08-06T07:27:26;96306.34;;;17.74;87.69
41306;BME280;27051;50.376;19.152;2023-08-06T07:29:55;96322.00;;;17.65;88.41
41306;BME280;27051;50.376;19.152;2023-08-06T07:32:22;96352.80;;;17.64;88.79
41306;BME280;27051;50.376;19.152;2023-08-06T07:34:51;96373.91;;;17.57;88.77
41306;BME280;27051;50.376;19.152;2023-08-06T07:37:26;96384.76;;;17.41;90.63
41306;BME280;27051;50.376;19.152;2023-08-06T07:39:52;96359.79;;;17.29;94.61
41306;BME280;27051;50.376;19.152;2023-08-06T07:42:19;96362.34;;;17.26;96.03
41306;BME280;27051;50.376;19.152;2023-08-06T07:44:56;96386.20;;;17.23;96.60
41306;BME280;27051;50.376;19.152;2023-08-06T07:47:23;96407.48;;;17.09;100.00
41306;BME280;27051;50.376;19.152;2023-08-06T07:49:49;96395.77;;;16.96;100.00
41306;BME280;27051;50.376;19.152;2023-08-06T07:52:25;96368.34;;;16.88;100.00
41306;BME280;27051;50.376;19.152;2023-08-06T07:54:51;96372.72;;;16.74;100.00
41306;BME280;27051;50.376;19.152;2023-08-06T07:57:18;96389.56;;;16.69;100.00
41306;BME280;27051;50.376;19.152;2023-08-06T07:59:45;96413.48;;;16.67;100.00
41306;BME280;27051;50.376;19.152;2023-08-06T08:02:20;96422.49;;;16.63;100.00
41306;BME280;27051;50.376;19.152;2023-08-06T08:04:46;96418.86;;;16.62;100.00
41306;BME280;27051;50.376;19.152;2023-08-06T08:07:13;96425.81;;;16.66;100.00
41306;BME280;27051;50.376;19.152;2023-08-06T08:09:40;96420.48;;;16.66;100.00
41306;BME280;27051;50.376;19.152;2023-08-06T08:12:20;96406.92;;;16.66;100.00
41306;BME280;27051;50.376;19.152;2023-08-06T08:14:47;96370.52;;;16.62;100.00
41306;BME280;27051;50.376;19.152;2023-08-06T08:17:13;96341.30;;;16.47;100.00
41306;BME280;27051;50.376;19.152;2023-08-06T08:19:43;96348.10;;;16.41;100.00
41306;BME280;27051;50.376;19.152;2023-08-06T08:22:10;96352.23;;;16.43;100.00
41306;BME280;27051;50.376;19.152;2023-08-06T08:24:36;96341.92;;;16.40;100.00
41306;BME280;27051;50.376;19.152;2023-08-06T08:27:03;96342.13;;;16.37;100.00
41306;BME280;27051;50.376;19.152;2023-08-06T08:29:30;96342.65;;;16.49;100.00
41306;BME280;27051;50.376;19.152;2023-08-06T08:31:56;96343.70;;;16.62;100.00
41306;BME280;27051;50.376;19.152;2023-08-06T08:34:23;96345.80;;;16.72;100.00
41306;BME280;27051;50.376;19.152;2023-08-06T08:36:49;96343.16;;;16.87;100.00
41306;BME280;27051;50.376;19.152;2023-08-06T08:39:16;96338.20;;;16.97;100.00
41306;BME280;27051;50.376;19.152;2023-08-06T08:41:43;96337.17;;;17.02;100.00
41306;BME280;27051;50.376;19.152;2023-08-06T08:44:10;96345.02;;;17.04;100.00
41306;BME280;27051;50.376;19.152;2023-08-06T08:46:49;96358.89;;;17.11;100.00
41306;BME280;27051;50.376;19.152;2023-08-06T08:49:17;96368.73;;;17.15;100.00
41306;BME280;27051;50.376;19.152;2023-08-06T08:51:45;96369.26;;;17.22;100.00
41306;BME280;27051;50.376;19.152;2023-08-06T08:54:13;96370.41;;;17.29;100.00
41306;BME280;27051;50.376;19.152;2023-08-06T08:56:40;96370.45;;;17.37;100.00
41306;BME280;27051;50.376;19.152;2023-08-06T08:59:07;96375.34;;;17.40;100.00
41306;BME280;27051;50.376;19.152;2023-08-06T09:01:34;96371.45;;;17.43;100.00
41306;BME280;27051;50.376;19.152;2023-08-06T09:04:02;96359.70;;;17.36;100.00
41306;BME280;27051;50.376;19.152;2023-08-06T09:06:33;96363.75;;;17.22;100.00
41306;BME280;27051;50.376;19.152;2023-08-06T09:09:08;96372.49;;;17.23;100.00
41306;BME280;27051;50.376;19.152;2023-08-06T09:11:42;96387.94;;;17.26;100.00
41306;BME280;27051;50.376;19.152;2023-08-06T09:14:10;96406.79;;;17.26;100.00
41306;BME280;27051;50.376;19.152;2023-08-06T09:16:37;96414.33;;;17.25;100.00
41306;BME280;27051;50.376;19.152;2023-08-06T09:19:11;96401.52;;;17.18;100.00
41306;BME280;27051;50.376;19.152;2023-08-06T09:21:42;96377.73;;;17.11;100.00
41306;BME280;27051;50.376;19.152;2023-08-06T09:24:26;96361.52;;;17.05;100.00
41306;BME280;27051;50.376;19.152;2023-08-06T09:26:53;96343.85;;;16.94;100.00
41306;BME280;27051;50.376;19.152;2023-08-06T09:29:20;96335.64;;;16.88;100.00
41306;BME280;27051;50.376;19.152;2023-08-06T09:31:48;96331.55;;;16.87;100.00
41306;BME280;27051;50.376;19.152;2023-08-06T09:34:20;96334.00;;;16.88;100.00
41306;BME280;27051;50.376;19.152;2023-08-06T09:36:49;96337.91;;;16.96;100.00
41306;BME280;27051;50.376;19.152;2023-08-06T09:39:18;96340.00;;;17.03;100.00
41306;BME280;27051;50.376;19.152;2023-08-06T09:42:07;96341.56;;;17.12;100.00
41306;BME280;27051;50.376;19.152;2023-08-06T09:44:38;96342.23;;;17.17;100.00
41306;BME280;27051;50.376;19.152;2023-08-06T09:47:06;96355.05;;;17.17;100.00
41306;BME280;27051;50.376;19.152;2023-08-06T09:49:49;96359.89;;;17.14;100.00
41306;BME280;27051;50.376;19.152;2023-08-06T09:52:17;96361.91;;;17.04;100.00
41306;BME280;27051;50.376;19.152;2023-08-06T09:54:48;96367.31;;;17.08;100.00
41306;BME280;27051;50.376;19.152;2023-08-06T09:59:55;96352.38;;;17.24;100.00
41306;BME280;27051;50.376;19.152;2023-08-06T10:02:24;96354.36;;;17.25;100.00
41306;BME280;27051;50.376;19.152;2023-08-06T10:04:51;96360.77;;;17.20;100.00
41306;BME280;27051;50.376;19.152;2023-08-06T10:07:21;96361.00;;;17.10;100.00
41306;BME280;27051;50.376;19.152;2023-08-06T10:10:09;96364.98;;;17.09;100.00
41306;BME280;27051;50.376;19.152;2023-08-06T10:12:40;96378.89;;;17.01;100.00
41306;BME280;27051;50.376;19.152;2023-08-06T10:15:14;96383.59;;;17.03;100.00
41306;BME280;27051;50.376;19.152;2023-08-06T10:17:45;96381.42;;;17.09;100.00
41306;BME280;27051;50.376;19.152;2023-08-06T10:20:13;96381.54;;;17.07;100.00
41306;BME280;27051;50.376;19.152;2023-08-06T10:22:46;96382.86;;;17.01;100.00
41306;BME280;27051;50.376;19.152;2023-08-06T10:25:26;96376.88;;;17.08;100.00
41306;BME280;27051;50.376;19.152;2023-08-06T10:27:53;96378.60;;;17.04;100.00
41306;BME280;27051;50.376;19.152;2023-08-06T10:30:25;96383.38;;;16.98;100.00
41306;BME280;27051;50.376;19.152;2023-08-06T10:32:57;96386.35;;;17.04;100.00
41306;BME280;27051;50.376;19.152;2023-08-06T10:35:48;96388.61;;;17.03;100.00
41306;BME280;27051;50.376;19.152;2023-08-06T10:38:32;96390.39;;;17.04;100.00
41306;BME280;27051;50.376;19.152;2023-08-06T10:41:15;96391.29;;;17.08;100.00
41306;BME280;27051;50.376;19.152;2023-08-06T10:43:42;96397.29;;;17.00;100.00
41306;BME280;27051;50.376;19.152;2023-08-06T10:46:11;96399.39;;;16.86;100.00
41306;BME280;27051;50.376;19.152;2023-08-06T10:48:45;96395.61;;;16.77;100.00
41306;BME280;27051;50.376;19.152;2023-08-06T10:51:15;96391.65;;;16.74;100.00
41306;BME280;27051;50.376;19.152;2023-08-06T10:53:45;96399.70;;;16.83;100.00
41306;BME280;27051;50.376;19.152;2023-08-06T10:56:13;96402.01;;;16.80;100.00
41306;BME280;27051;50.376;19.152;2023-08-06T10:59:00;96400.42;;;16.88;100.00
41306;BME280;27051;50.376;19.152;2023-08-06T11:01:29;96403.79;;;16.94;100.00
41306;BME280;27051;50.376;19.152;2023-08-06T11:03:56;96400.55;;;16.97;100.00
41306;BME280;27051;50.376;19.152;2023-08-06T11:06:51;96403.17;;;17.04;100.00
41306;BME280;27051;50.376;19.152;2023-08-06T11:09:14;96412.51;;;16.96;100.00
41306;BME280;27051;50.376;19.152;2023-08-06T11:11:40;96409.36;;;16.91;100.00
41306;BME280;27051;50.376;19.152;2023-08-06T11:14:30;96413.23;;;16.88;100.00
41306;BME280;27051;50.376;19.152;2023-08-06T11:16:53;96420.43;;;16.92;100.00
41306;BME280;27051;50.376;19.152;2023-08-06T11:19:25;96416.69;;;16.93;100.00
41306;BME280;27051;50.376;19.152;2023-08-06T11:21:51;96405.98;;;16.86;100.00
41306;BME280;27051;50.376;19.152;2023-08-06T11:24:18;96410.40;;;16.74;100.00
41306;BME280;27051;50.376;19.152;2023-08-06T11:26:44;96409.46;;;16.67;100.00
41306;BME280;27051;50.376;19.152;2023-08-06T11:29:11;96400.92;;;16.56;100.00
41306;BME280;27051;50.376;19.152;2023-08-06T11:31:40;96405.49;;;16.56;100.00
41306;BME280;27051;50.376;19.152;2023-08-06T11:34:06;96405.07;;;16.58;100.00
41306;BME280;27051;50.376;19.152;2023-08-06T11:36:33;96404.85;;;16.57;100.00
41306;BME280;27051;50.376;19.152;2023-08-06T11:39:00;96405.73;;;16.47;100.00
41306;BME280;27051;50.376;19.152;2023-08-06T11:41:30;96408.48;;;16.42;100.00
41306;BME280;27051;50.376;19.152;2023-08-06T11:43:57;96408.63;;;16.43;100.00
41306;BME280;27051;50.376;19.152;2023-08-06T11:46:23;96414.71;;;16.45;100.00
41306;BME280;27051;50.376;19.152;2023-08-06T11:49:07;96416.91;;;16.47;100.00
41306;BME280;27051;50.376;19.152;2023-08-06T11:51:33;96425.70;;;16.41;100.00
41306;BME280;27051;50.376;19.152;2023-08-06T11:54:00;96426.54;;;16.43;100.00
41306;BME280;27051;50.376;19.152;2023-08-06T11:56:27;96432.70;;;16.44;100.00
41306;BME280;27051;50.376;19.152;2023-08-06T11:58:56;96434.31;;;16.57;100.00
41306;BME280;27051;50.376;19.152;2023-08-06T12:01:22;96441.09;;;16.59;100.00
41306;BME280;27051;50.376;19.152;2023-08-06T12:03:49;96443.39;;;16.56;100.00
41306;BME280;27051;50.376;19.152;2023-08-06T12:06:15;96444.77;;;16.53;100.00
41306;BME280;27051;50.376;19.152;2023-08-06T12:08:42;96445.95;;;16.52;100.00
41306;BME280;27051;50.376;19.152;2023-08-06T12:11:08;96444.14;;;16.50;100.00
41306;BME280;27051;50.376;19.152;2023-08-06T12:13:37;96440.23;;;16.47;100.00
41306;BME280;27051;50.376;19.152;2023-08-06T12:16:04;96448.17;;;16.49;100.00
41306;BME280;27051;50.376;19.152;2023-08-06T12:18:30;96449.73;;;16.53;100.00
41306;BME280;27051;50.376;19.152;2023-08-06T12:20:56;96449.86;;;16.45;100.00
41306;BME280;27051;50.376;19.152;2023-08-06T12:23:23;96448.31;;;16.42;100.00
41306;BME280;27051;50.376;19.152;2023-08-06T12:25:49;96448.08;;;16.43;100.00
41306;BME280;27051;50.376;19.152;2023-08-06T12:28:25;96453.00;;;16.44;100.00
41306;BME280;27051;50.376;19.152;2023-08-06T12:30:54;96463.71;;;16.43;100.00
41306;BME280;27051;50.376;19.152;2023-08-06T12:33:32;96472.58;;;16.41;100.00
41306;BME280;27051;50.376;19.152;2023-08-06T12:35:58;96476.12;;;16.42;100.00
41306;BME280;27051;50.376;19.152;2023-08-06T12:38:27;96482.31;;;16.42;100.00
41306;BME280;27051;50.376;19.152;2023-08-06T12:41:15;96481.48;;;16.49;100.00
41306;BME280;27051;50.376;19.152;2023-08-06T12:43:49;96490.89;;;16.60;100.00
41306;BME280;27051;50.376;19.152;2023-08-06T12:46:37;96498.94;;;16.64;100.00
41306;BME280;27051;50.376;19.152;2023-08-06T12:49:02;96504.18;;;16.58;100.00
41306;BME280;27051;50.376;19.152;2023-08-06T12:51:34;96513.23;;;16.59;100.00
41306;BME280;27051;50.376;19.152;2023-08-06T12:54:22;96514.01;;;16.63;100.00
41306;BME280;27051;50.376;19.152;2023-08-06T12:57:08;96508.23;;;16.65;100.00
41306;BME280;27051;50.376;19.152;2023-08-06T13:02:10;96498.58;;;16.67;100.00
41306;BME280;27051;50.376;19.152;2023-08-06T13:07:34;96492.71;;;16.66;100.00
41306;BME280;27051;50.376;19.152;2023-08-06T13:10:21;96494.10;;;16.63;100.00
41306;BME280;27051;50.376;19.152;2023-08-06T13:12:49;96493.35;;;16.62;100.00
41306;BME280;27051;50.376;19.152;2023-08-06T13:15:16;96497.45;;;16.69;100.00
41306;BME280;27051;50.376;19.152;2023-08-06T13:17:42;96499.00;;;16.78;100.00
41306;BME280;27051;50.376;19.152;2023-08-06T13:20:09;96499.00;;;16.83;100.00
41306;BME280;27051;50.376;19.152;2023-08-06T13:22:38;96500.23;;;16.98;100.00
41306;BME280;27051;50.376;19.152;2023-08-06T13:25:05;96496.09;;;17.17;100.00
41306;BME280;27051;50.376;19.152;2023-08-06T13:35:21;96490.41;;;17.56;100.00
41306;BME280;27051;50.376;19.152;2023-08-06T13:37:50;96489.69;;;17.90;100.00
41306;BME280;27051;50.376;19.152;2023-08-06T13:40:17;96497.83;;;18.37;100.00
41306;BME280;27051;50.376;19.152;2023-08-06T13:42:46;96501.90;;;19.02;99.99
41306;BME280;27051;50.376;19.152;2023-08-06T13:45:15;96504.02;;;19.51;99.52
41306;BME280;27051;50.376;19.152;2023-08-06T13:47:41;96503.52;;;19.54;98.10
41306;BME280;27051;50.376;19.152;2023-08-06T13:50:08;96507.92;;;19.40;97.63
41306;BME280;27051;50.376;19.152;2023-08-06T13:52:34;96518.00;;;19.26;97.07
41306;BME280;27051;50.376;19.152;2023-08-06T13:55:04;96528.17;;;19.00;95.57
41306;BME280;27051;50.376;19.152;2023-08-06T13:57:31;96535.52;;;18.70;95.90
41306;BME280;27051;50.376;19.152;2023-08-06T14:00:06;96534.74;;;18.52;97.00
41306;BME280;27051;50.376;19.152;2023-08-06T14:05:09;96543.36;;;18.37;98.98
41306;BME280;27051;50.376;19.152;2023-08-06T14:07:57;96548.83;;;18.39;99.07
41306;BME280;27051;50.376;19.152;2023-08-06T14:10:25;96555.98;;;18.48;99.63
41306;BME280;27051;50.376;19.152;2023-08-06T14:12:54;96554.08;;;18.47;99.12
41306;BME280;27051;50.376;19.152;2023-08-06T14:18:19;96560.42;;;18.39;98.67
41306;BME280;27051;50.376;19.152;2023-08-06T14:20:44;96561.69;;;18.41;98.96
41306;BME280;27051;50.376;19.152;2023-08-06T14:23:13;96560.20;;;18.45;99.74